Terminal Aerodrome Forecast
Issued by NWS Brownsville, TX

Home | Current Version | Previous Version | Text Only | Print | Product List | Glossary On
Versions: 1 2 3 4 5 6 7 8 9 10 11 12 13 14 15 16 17 18 19 20 21
516
FTUS44 KBRO 301131
TAFHRL
TAF
KHRL 301131Z 3012/3112 VRB05KT P6SM FEW035
     FM301500 04010KT P6SM SCT030
     FM302100 07012KT P6SM VCSH BKN040
     FM310100 10009KT P6SM SCT040=

USA.gov is the U.S. government's official web portal to all federal, state and local government web resources and services.